Time;durP1;ratioP1;P1;durP2;ratioP2;P2;SDS_P1;SDS_P2;PMS_P1;PMS_P2;Temp;Humidity;BMP_temperature;BMP_pressure;BME280_temperature;BME280_humidity;BME280_pressure;Samples;Min_cycle;Max_cycle;Signal;HPM_P1;HPM_P2
2022/12/16 00:01:59;;;;;;;10.90;4.50;;;;;;;;;;6103883;19;20042;-76
2022/12/16 00:04:04;;;;;;;18.63;4.88;;;;;;;;;;6105833;19;20532;-76
2022/12/16 00:06:10;;;;;;;7.38;4.43;;;;;;;;;;6106740;19;20114;-76
2022/12/16 00:08:15;;;;;;;6.55;4.20;;;;;;;;;;6107287;19;20010;-74
2022/12/16 00:10:23;;;;;;;9.52;4.10;;;;;;;;;;6106122;19;20474;-73
2022/12/16 00:12:28;;;;;;;8.15;3.75;;;;;;;;;;6104512;19;21040;-73
2022/12/16 00:14:34;;;;;;;7.35;2.83;;;;;;;;;;6106489;19;20014;-74
2022/12/16 00:16:39;;;;;;;9.57;3.72;;;;;;;;;;6107629;19;20010;-75
2022/12/16 00:18:43;;;;;;;9.13;3.47;;;;;;;;;;6105115;19;20022;-76
2022/12/16 00:20:49;;;;;;;9.88;3.72;;;;;;;;;;6102020;19;20025;-76
2022/12/16 00:22:55;;;;;;;8.82;4.00;;;;;;;;;;6102669;19;20015;-76
2022/12/16 00:25:00;;;;;;;6.88;4.07;;;;;;;;;;6105894;19;20090;-76
2022/12/16 00:27:07;;;;;;;9.80;3.42;;;;;;;;;;6103789;19;20010;-76
2022/12/16 00:29:12;;;;;;;11.82;3.67;;;;;;;;;;6107047;19;20046;-76
2022/12/16 00:31:17;;;;;;;10.48;3.63;;;;;;;;;;6105637;19;20011;-77
2022/12/16 00:33:23;;;;;;;11.77;3.15;;;;;;;;;;6105069;19;20014;-76
2022/12/16 00:35:29;;;;;;;7.18;3.30;;;;;;;;;;6105160;19;20060;-77
2022/12/16 00:37:34;;;;;;;9.27;2.53;;;;;;;;;;6102879;19;20038;-76
2022/12/16 00:39:39;;;;;;;11.48;3.70;;;;;;;;;;6104363;19;20077;-76
2022/12/16 00:41:43;;;;;;;7.30;3.40;;;;;;;;;;6103223;19;20344;-76
2022/12/16 00:43:51;;;;;;;4.47;3.15;;;;;;;;;;6105445;19;20041;-77
2022/12/16 00:45:56;;;;;;;6.47;3.28;;;;;;;;;;6104317;19;20027;-76
2022/12/16 00:48:01;;;;;;;6.85;3.30;;;;;;;;;;6102578;19;20025;-77
2022/12/16 00:50:08;;;;;;;7.55;3.47;;;;;;;;;;6105697;19;20018;-76
2022/12/16 00:52:13;;;;;;;9.77;3.47;;;;;;;;;;6104354;19;20484;-76
2022/12/16 00:54:17;;;;;;;9.20;2.90;;;;;;;;;;6104834;19;20394;-76
2022/12/16 00:56:23;;;;;;;9.02;3.42;;;;;;;;;;6106602;19;20003;-76
2022/12/16 00:58:28;;;;;;;7.05;3.00;;;;;;;;;;6104571;19;20113;-77
2022/12/16 01:00:35;;;;;;;6.75;2.75;;;;;;;;;;6104378;19;20038;-77
2022/12/16 01:02:42;;;;;;;10.00;3.03;;;;;;;;;;6103577;19;20380;-77
2022/12/16 01:04:47;;;;;;;11.05;3.67;;;;;;;;;;6104081;19;20402;-76
2022/12/16 01:06:53;;;;;;;9.13;2.70;;;;;;;;;;6104840;19;20010;-77
2022/12/16 01:08:59;;;;;;;7.53;2.63;;;;;;;;;;6104518;19;20017;-77
2022/12/16 01:11:03;;;;;;;11.88;3.65;;;;;;;;;;6103361;19;20090;-76
2022/12/16 01:13:12;;;;;;;5.75;2.92;;;;;;;;;;6102084;19;20390;-74
2022/12/16 01:15:19;;;;;;;8.02;2.88;;;;;;;;;;6079325;19;20014;-75
2022/12/16 01:17:27;;;;;;;10.38;3.17;;;;;;;;;;6104078;19;20100;-75
2022/12/16 01:19:32;;;;;;;5.93;2.90;;;;;;;;;;6103583;19;20022;-75
2022/12/16 01:21:37;;;;;;;9.25;2.80;;;;;;;;;;6103301;19;20381;-76
2022/12/16 01:23:42;;;;;;;9.73;3.40;;;;;;;;;;6103493;19;20214;-76
2022/12/16 01:25:46;;;;;;;6.55;2.85;;;;;;;;;;6102879;19;20014;-76
2022/12/16 01:27:52;;;;;;;9.43;3.25;;;;;;;;;;6102182;19;20066;-76
2022/12/16 01:29:58;;;;;;;6.13;3.00;;;;;;;;;;6099947;19;20010;-76
2022/12/16 01:32:03;;;;;;;4.32;2.85;;;;;;;;;;6102524;19;20010;-76
2022/12/16 01:34:10;;;;;;;4.75;2.47;;;;;;;;;;6105248;19;20014;-76
2022/12/16 01:36:15;;;;;;;7.85;2.97;;;;;;;;;;6103304;19;20430;-77
2022/12/16 01:38:21;;;;;;;7.95;3.10;;;;;;;;;;6101124;19;20017;-77
2022/12/16 01:40:26;;;;;;;12.20;2.85;;;;;;;;;;6102422;19;20111;-76
2022/12/16 01:42:32;;;;;;;7.00;3.17;;;;;;;;;;6102872;19;20366;-76
2022/12/16 01:44:37;;;;;;;11.98;3.40;;;;;;;;;;6102243;19;20111;-77
2022/12/16 01:46:42;;;;;;;7.78;3.13;;;;;;;;;;6101113;19;20013;-77
2022/12/16 01:48:49;;;;;;;7.72;3.05;;;;;;;;;;6099529;19;20082;-76
2022/12/16 01:51:01;;;;;;;6.55;2.40;;;;;;;;;;6101799;19;20007;-76
2022/12/16 01:53:07;;;;;;;7.73;2.90;;;;;;;;;;6096779;19;20140;-76
2022/12/16 01:55:17;;;;;;;7.30;3.35;;;;;;;;;;6099808;19;20440;-77
2022/12/16 01:57:27;;;;;;;3.70;2.35;;;;;;;;;;6099069;19;20042;-77
2022/12/16 01:59:35;;;;;;;5.78;3.10;;;;;;;;;;6096906;19;20094;-76
2022/12/16 02:01:40;;;;;;;7.85;2.65;;;;;;;;;;6101337;19;20014;-76
2022/12/16 02:03:46;;;;;;;6.38;2.58;;;;;;;;;;6100605;19;20045;-76
2022/12/16 02:05:51;;;;;;;8.07;2.63;;;;;;;;;;6101965;19;20086;-77
2022/12/16 02:08:02;;;;;;;7.88;2.47;;;;;;;;;;6099452;19;20082;-76
2022/12/16 02:10:10;;;;;;;5.50;2.30;;;;;;;;;;6097869;19;20010;-76
2022/12/16 02:12:24;;;;;;;7.28;2.83;;;;;;;;;;6101704;19;20046;-76
2022/12/16 02:14:39;;;;;;;7.57;3.22;;;;;;;;;;6101208;19;20490;-76
2022/12/16 02:16:48;;;;;;;6.13;2.60;;;;;;;;;;6099313;19;20010;-77
2022/12/16 02:19:00;;;;;;;7.55;2.65;;;;;;;;;;6100369;19;20456;-77
2022/12/16 02:21:21;;;;;;;6.72;2.58;;;;;;;;;;6098844;19;20034;-77
2022/12/16 02:23:45;;;;;;;7.85;2.70;;;;;;;;;;6095111;19;20018;-77
2022/12/16 02:26:05;;;;;;;10.27;2.72;;;;;;;;;;6098452;19;20030;-76
2022/12/16 02:28:10;;;;;;;4.68;1.80;;;;;;;;;;6094078;19;20010;-76
2022/12/16 02:30:38;;;;;;;5.68;2.65;;;;;;;;;;6095261;19;20602;-76
2022/12/16 02:32:51;;;;;;;4.07;2.13;;;;;;;;;;6097322;19;20019;-76
2022/12/16 02:35:00;;;;;;;6.30;2.35;;;;;;;;;;6098265;19;20122;-74
2022/12/16 02:37:14;;;;;;;3.83;2.28;;;;;;;;;;6102818;19;20023;-75
2022/12/16 02:39:23;;;;;;;7.20;3.22;;;;;;;;;;6098040;19;20031;-74
2022/12/16 02:41:35;;;;;;;6.35;2.45;;;;;;;;;;6100430;19;20372;-75
2022/12/16 02:43:52;;;;;;;10.65;3.25;;;;;;;;;;6098216;19;20017;-74
2022/12/16 02:46:04;;;;;;;8.52;3.13;;;;;;;;;;6101309;19;20482;-74
2022/12/16 02:48:09;;;;;;;4.43;2.95;;;;;;;;;;6105379;19;21728;-75
2022/12/16 02:50:20;;;;;;;7.68;2.78;;;;;;;;;;6106123;19;20017;-75
2022/12/16 02:52:28;;;;;;;10.10;2.42;;;;;;;;;;6082532;19;20015;-74
2022/12/16 02:54:33;;;;;;;9.63;2.80;;;;;;;;;;6103048;19;20007;-74
2022/12/16 02:56:50;;;;;;;7.03;2.40;;;;;;;;;;6106595;19;20358;-74
2022/12/16 02:59:01;;;;;;;9.85;2.92;;;;;;;;;;6103019;19;20013;-74
2022/12/16 03:01:15;;;;;;;5.75;2.15;;;;;;;;;;6100620;19;20057;-75
2022/12/16 03:03:22;;;;;;;5.43;2.10;;;;;;;;;;6104612;19;20016;-76
2022/12/16 03:05:31;;;;;;;5.55;2.38;;;;;;;;;;6105693;19;20505;-76
2022/12/16 03:07:38;;;;;;;4.07;2.38;;;;;;;;;;6103888;19;20507;-76
2022/12/16 03:09:43;;;;;;;8.20;2.40;;;;;;;;;;6105740;19;20542;-74
2022/12/16 03:11:49;;;;;;;7.57;2.60;;;;;;;;;;6103329;19;20014;-74
2022/12/16 03:13:55;;;;;;;4.30;2.28;;;;;;;;;;6103080;19;20014;-76
2022/12/16 03:16:02;;;;;;;8.85;1.90;;;;;;;;;;6099858;19;20014;-76
2022/12/16 03:18:11;;;;;;;6.57;1.85;;;;;;;;;;6105706;19;20013;-75
2022/12/16 03:20:19;;;;;;;6.30;2.75;;;;;;;;;;6105249;19;20014;-75
2022/12/16 03:22:27;;;;;;;8.52;2.53;;;;;;;;;;6102030;19;20003;-77
2022/12/16 03:24:33;;;;;;;10.18;2.80;;;;;;;;;;6100608;19;20010;-76
2022/12/16 03:26:41;;;;;;;8.98;2.65;;;;;;;;;;6102846;19;20033;-77
2022/12/16 03:28:51;;;;;;;7.88;2.83;;;;;;;;;;6104753;19;20010;-76
2022/12/16 03:31:00;;;;;;;7.40;2.55;;;;;;;;;;6104094;19;20010;-77
2022/12/16 03:33:10;;;;;;;11.80;3.28;;;;;;;;;;6101055;19;20019;-75
2022/12/16 03:35:20;;;;;;;8.88;3.05;;;;;;;;;;6105141;19;20007;-75
2022/12/16 03:37:29;;;;;;;11.98;3.67;;;;;;;;;;6103831;19;20027;-75
2022/12/16 03:39:36;;;;;;;12.10;4.05;;;;;;;;;;6106103;19;20014;-76
2022/12/16 03:41:41;;;;;;;10.40;3.08;;;;;;;;;;6105672;19;20015;-77
2022/12/16 03:43:47;;;;;;;13.60;4.15;;;;;;;;;;6106976;19;20597;-76
2022/12/16 03:45:55;;;;;;;11.10;3.90;;;;;;;;;;6106341;19;20074;-75
2022/12/16 03:48:01;;;;;;;13.23;3.30;;;;;;;;;;6102439;19;20020;-74
2022/12/16 03:50:09;;;;;;;9.77;3.20;;;;;;;;;;6104609;19;20025;-75
2022/12/16 03:52:14;;;;;;;17.67;3.80;;;;;;;;;;6105300;19;20014;-75
2022/12/16 03:54:19;;;;;;;5.80;2.35;;;;;;;;;;6106348;19;20007;-76
2022/12/16 03:56:24;;;;;;;12.93;3.35;;;;;;;;;;6105253;19;20427;-76
2022/12/16 03:58:29;;;;;;;11.38;3.10;;;;;;;;;;6107588;19;20561;-77
2022/12/16 04:00:34;;;;;;;11.38;3.00;;;;;;;;;;6106902;19;20098;-77
2022/12/16 04:02:39;;;;;;;15.35;3.58;;;;;;;;;;6103167;19;20007;-76
2022/12/16 04:04:44;;;;;;;9.45;3.45;;;;;;;;;;6108292;19;20028;-74
2022/12/16 04:07:19;;;;;;;7.57;2.72;;;;;;;;;;6106648;19;20019;-77
2022/12/16 04:09:16;;;;;;;9.40;3.53;;;;;;;;;;6104067;19;20010;-76
2022/12/16 04:25:16;;;;;;;8.57;3.50;;;;;;;;;;6107293;19;20031;-77
2022/12/16 04:27:28;;;;;;;9.35;3.38;;;;;;;;;;6105828;19;20010;-79
2022/12/16 04:30:17;;;;;;;8.53;3.03;;;;;;;;;;6103240;19;20014;-79
2022/12/16 04:32:00;;;;;;;10.77;3.10;;;;;;;;;;6103746;19;20271;-77
